Time;durP1;ratioP1;P1;durP2;ratioP2;P2;SDS_P1;SDS_P2;PMS_P1;PMS_P2;Temp;Humidity;BMP_temperature;BMP_pressure;BME280_temperature;BME280_humidity;BME280_pressure;Samples;Min_cycle;Max_cycle;Signal;HPM_P1;HPM_P2
2022/03/10 00:01:46;;;;;;;12.32;7.65;;;3.90;95.20;;;;;;5021356;28;20038;-71
2022/03/10 00:04:11;;;;;;;19.65;8.27;;;3.90;95.00;;;;;;5021290;28;20039;-72
2022/03/10 00:06:37;;;;;;;14.77;9.23;;;3.90;95.00;;;;;;5022026;28;20044;-71
2022/03/10 00:09:02;;;;;;;13.75;8.25;;;3.90;95.20;;;;;;5021538;28;20434;-71
2022/03/10 00:11:28;;;;;;;17.83;10.52;;;3.80;95.10;;;;;;5021281;28;20058;-71
2022/03/10 00:13:54;;;;;;;17.00;9.18;;;3.80;95.30;;;;;;5021921;28;20030;-71
2022/03/10 00:16:20;;;;;;;16.77;9.10;;;3.80;95.40;;;;;;5021340;28;20037;-71
2022/03/10 00:18:46;;;;;;;16.67;9.57;;;3.80;95.30;;;;;;5021815;28;20029;-71
2022/03/10 00:21:12;;;;;;;15.20;9.38;;;3.70;95.40;;;;;;5021307;28;20046;-71
2022/03/10 00:23:37;;;;;;;16.20;9.60;;;3.70;95.70;;;;;;5021779;28;20029;-71
2022/03/10 00:26:03;;;;;;;14.18;9.07;;;3.70;95.80;;;;;;5020948;28;20037;-71
2022/03/10 00:28:28;;;;;;;16.13;8.80;;;3.70;95.70;;;;;;5020930;28;20040;-71
2022/03/10 00:30:54;;;;;;;16.95;9.32;;;3.60;95.70;;;;;;5021328;28;20038;-71
2022/03/10 00:33:19;;;;;;;13.90;8.63;;;3.50;95.80;;;;;;5020589;28;20048;-71
2022/03/10 00:35:45;;;;;;;13.40;8.15;;;3.50;95.70;;;;;;5021672;28;20471;-71
2022/03/10 00:38:10;;;;;;;15.65;9.75;;;3.50;95.80;;;;;;5020834;28;20025;-72
2022/03/10 00:40:36;;;;;;;15.32;9.85;;;3.50;95.90;;;;;;5021676;28;20080;-71
2022/03/10 00:43:01;;;;;;;14.18;9.55;;;3.40;96.00;;;;;;5019370;28;20026;-72
2022/03/10 00:45:27;;;;;;;15.10;9.40;;;3.40;96.30;;;;;;5021558;28;20049;-71
2022/03/10 00:47:53;;;;;;;15.55;9.43;;;3.50;96.40;;;;;;5020949;28;20710;-70
2022/03/10 00:50:20;;;;;;;;;;;3.40;96.30;;;;;;5021208;28;20037;-71
2022/03/10 00:52:46;;;;;;;;;;;3.40;96.40;;;;;;5021016;28;20000;-71
2022/03/10 00:55:15;;;;;;;14.45;8.13;;;3.40;96.40;;;;;;5020283;28;20004;-71
2022/03/10 00:57:40;;;;;;;14.35;9.40;;;3.30;96.30;;;;;;5020963;28;20506;-71
2022/03/10 01:00:07;;;;;;;17.60;8.82;;;3.30;96.40;;;;;;5020055;28;20045;-71
2022/03/10 01:02:36;;;;;;;18.55;9.13;;;3.20;96.40;;;;;;5020613;28;20131;-71
2022/03/10 01:05:03;;;;;;;17.75;11.60;;;3.20;96.60;;;;;;5018642;28;20034;-70
2022/03/10 01:07:28;;;;;;;15.18;10.13;;;3.30;96.60;;;;;;5020927;28;20560;-71
2022/03/10 01:09:54;;;;;;;17.05;9.10;;;3.20;96.70;;;;;;5020896;28;20064;-71
2022/03/10 01:12:19;;;;;;;13.48;9.10;;;3.20;96.60;;;;;;5020633;28;20045;-71
2022/03/10 01:14:45;;;;;;;19.35;9.35;;;3.20;96.60;;;;;;5020792;28;20029;-71
2022/03/10 01:17:10;;;;;;;15.05;8.27;;;3.20;96.50;;;;;;5019485;28;20119;-71
2022/03/10 01:19:36;;;;;;;19.95;8.95;;;3.20;96.60;;;;;;5020304;28;20072;-71
2022/03/10 01:22:02;;;;;;;13.45;8.80;;;3.20;96.40;;;;;;5019244;28;20044;-71
2022/03/10 01:24:28;;;;;;;;;;;3.20;96.40;;;;;;5020164;28;20025;-71
2022/03/10 01:26:53;;;;;;;13.52;8.95;;;3.20;96.30;;;;;;5020228;28;19936;-71
2022/03/10 01:29:19;;;;;;;15.35;8.85;;;3.30;96.20;;;;;;5020302;28;20502;-71
2022/03/10 01:31:45;;;;;;;13.88;7.80;;;3.20;96.30;;;;;;5019770;28;20029;-71
2022/03/10 01:34:11;;;;;;;13.15;8.02;;;3.30;96.10;;;;;;5019366;28;20116;-71
2022/03/10 01:36:36;;;;;;;10.10;7.75;;;3.20;96.00;;;;;;5019820;28;20144;-70
2022/03/10 01:39:05;;;;;;;13.98;8.20;;;3.20;95.70;;;;;;5018937;28;20041;-71
2022/03/10 01:41:34;;;;;;;13.88;7.72;;;3.30;95.50;;;;;;5019864;28;20311;-71
2022/03/10 01:44:03;;;;;;;14.02;7.63;;;3.30;95.30;;;;;;5019743;28;20034;-71
2022/03/10 01:46:29;;;;;;;15.73;9.07;;;3.30;95.20;;;;;;5019286;28;20557;-72
2022/03/10 01:48:55;;;;;;;11.32;7.90;;;3.30;95.10;;;;;;5019724;28;20036;-71
2022/03/10 01:51:22;;;;;;;12.75;7.30;;;3.30;94.90;;;;;;5019760;28;20505;-72
2022/03/10 01:53:50;;;;;;;15.25;8.20;;;3.40;94.70;;;;;;5019442;28;20057;-71
2022/03/10 01:56:17;;;;;;;11.15;6.88;;;3.40;94.90;;;;;;5019452;28;20038;-71
2022/03/10 01:58:42;;;;;;;11.85;7.78;;;3.50;94.50;;;;;;5019958;28;20029;-72
2022/03/10 02:01:11;;;;;;;15.10;8.10;;;3.50;94.40;;;;;;5019661;28;20245;-71
2022/03/10 02:03:37;;;;;;;15.57;8.40;;;3.60;94.00;;;;;;5019245;28;20044;-72
2022/03/10 02:06:04;;;;;;;12.55;7.47;;;3.60;94.20;;;;;;5019646;28;20056;-70
2022/03/10 02:11:13;;;;;;;15.95;8.25;;;3.60;94.00;;;;;;5019531;28;19959;-71
2022/03/10 02:13:39;;;;;;;15.75;8.23;;;3.60;94.00;;;;;;5020452;28;20033;-71
2022/03/10 02:18:53;;;;;;;30.52;17.63;;;3.60;94.20;;;;;;5018770;28;20041;-71
2022/03/10 02:21:18;;;;;;;26.55;14.27;;;3.50;94.20;;;;;;5019139;28;20025;-71
2022/03/10 02:23:44;;;;;;;22.27;10.80;;;3.50;94.20;;;;;;5019730;28;20438;-70
2022/03/10 02:26:11;;;;;;;23.23;11.55;;;3.50;94.30;;;;;;5019148;28;20032;-71
2022/03/10 02:28:38;;;;;;;25.48;12.35;;;3.40;94.20;;;;;;5017982;28;20029;-70
2022/03/10 02:31:03;;;;;;;21.52;13.02;;;3.40;94.20;;;;;;5018187;28;20034;-71
2022/03/10 02:33:29;;;;;;;21.52;13.45;;;3.40;94.40;;;;;;5018574;28;20467;-71
2022/03/10 02:35:54;;;;;;;24.70;13.30;;;3.40;94.40;;;;;;5018968;28;20394;-71
2022/03/10 02:38:20;;;;;;;16.92;9.70;;;3.40;94.40;;;;;;5018393;28;20029;-71
2022/03/10 02:40:49;;;;;;;14.45;9.10;;;3.40;94.50;;;;;;5019154;28;20490;-71
2022/03/10 02:43:17;;;;;;;14.45;8.10;;;3.40;94.50;;;;;;5017855;28;20045;-71
2022/03/10 02:45:42;;;;;;;15.52;8.82;;;3.40;94.70;;;;;;5018478;28;20034;-71
2022/03/10 02:48:08;;;;;;;19.55;9.40;;;3.40;94.70;;;;;;5018850;28;20036;-70
2022/03/10 02:50:33;;;;;;;13.45;8.88;;;3.40;94.70;;;;;;5019206;28;20129;-71
2022/03/10 02:52:59;;;;;;;16.17;8.80;;;3.30;94.80;;;;;;5018133;28;20037;-70
2022/03/10 02:55:24;;;;;;;19.83;9.98;;;3.30;94.80;;;;;;5018138;28;20367;-70
2022/03/10 02:57:51;;;;;;;15.30;8.70;;;3.30;94.80;;;;;;5018909;28;20058;-70
2022/03/10 03:00:18;;;;;;;19.92;9.82;;;3.30;95.00;;;;;;5017675;28;20655;-70
2022/03/10 03:02:44;;;;;;;11.25;7.22;;;3.30;95.00;;;;;;5018910;28;20112;-70
2022/03/10 03:05:14;;;;;;;17.35;8.73;;;3.30;95.20;;;;;;5019579;28;20466;-70
2022/03/10 03:07:40;;;;;;;13.35;8.93;;;3.30;95.00;;;;;;5018338;28;20454;-71
2022/03/10 03:10:07;;;;;;;12.77;7.35;;;3.40;95.00;;;;;;5018688;28;20026;-71
2022/03/10 03:12:33;;;;;;;16.17;7.32;;;3.40;94.70;;;;;;5018518;28;20022;-71
2022/03/10 03:14:59;;;;;;;;;;;3.50;94.70;;;;;;5023073;28;20036;-70
2022/03/10 03:17:24;;;;;;;13.65;7.88;;;3.50;94.70;;;;;;5022117;28;19923;-71
2022/03/10 03:19:51;;;;;;;12.27;7.65;;;3.50;94.30;;;;;;5022784;28;20441;-71
2022/03/10 03:22:17;;;;;;;13.27;7.75;;;3.60;94.30;;;;;;5022745;28;20037;-71
2022/03/10 03:24:43;;;;;;;16.58;7.55;;;3.60;94.30;;;;;;5021922;28;20026;-71
2022/03/10 03:27:09;;;;;;;11.98;7.05;;;3.50;94.30;;;;;;5022195;28;20512;-71
2022/03/10 03:29:34;;;;;;;10.38;6.95;;;3.50;94.30;;;;;;5023177;28;20021;-71
2022/03/10 03:32:00;;;;;;;15.23;8.20;;;3.50;94.50;;;;;;5021752;28;20034;-71
2022/03/10 03:34:26;;;;;;;10.13;6.68;;;3.50;94.00;;;;;;5022282;28;20021;-71
2022/03/10 03:36:51;;;;;;;12.20;8.60;;;3.50;94.10;;;;;;5022484;28;20025;-71
2022/03/10 03:39:17;;;;;;;11.20;7.05;;;3.50;94.20;;;;;;5022963;28;20061;-71
2022/03/10 03:41:42;;;;;;;12.93;8.10;;;3.50;94.40;;;;;;5022380;28;20033;-71
2022/03/10 03:44:09;;;;;;;11.32;7.55;;;3.50;94.10;;;;;;5022475;28;20037;-71
2022/03/10 03:46:35;;;;;;;11.13;6.63;;;3.50;94.20;;;;;;5022061;28;20060;-72
2022/03/10 03:49:01;;;;;;;12.43;6.53;;;3.50;94.10;;;;;;5021586;28;20378;-71
2022/03/10 03:51:26;;;;;;;13.85;8.13;;;3.50;94.00;;;;;;5020654;28;20029;-71
2022/03/10 03:53:52;;;;;;;15.68;8.70;;;3.50;94.10;;;;;;5021924;28;20151;-72
2022/03/10 03:56:18;;;;;;;14.63;7.78;;;3.60;94.00;;;;;;5021679;28;20046;-72
2022/03/10 03:58:43;;;;;;;11.73;6.80;;;3.50;94.00;;;;;;5022236;28;20432;-72
2022/03/10 04:01:12;;;;;;;14.55;7.22;;;3.50;93.80;;;;;;5021701;28;20488;-71
2022/03/10 04:03:38;;;;;;;10.43;7.30;;;3.50;94.00;;;;;;5021665;28;20033;-72
2022/03/10 04:06:04;;;;;;;9.48;6.35;;;3.50;93.90;;;;;;5021328;28;20025;-72
2022/03/10 04:08:30;;;;;;;14.95;7.18;;;3.60;93.80;;;;;;5022326;28;20028;-72
2022/03/10 04:10:55;;;;;;;;;;;3.60;93.80;;;;;;5021563;28;20026;-72
2022/03/10 04:13:21;;;;;;;11.63;6.32;;;3.60;94.20;;;;;;5021669;28;20404;-72
2022/03/10 04:15:49;;;;;;;11.98;7.88;;;3.60;94.20;;;;;;5021118;28;20030;-71
2022/03/10 04:18:16;;;;;;;11.32;6.88;;;3.60;94.00;;;;;;5021437;28;20108;-72
2022/03/10 04:20:41;;;;;;;16.17;7.78;;;3.70;94.20;;;;;;5021245;28;20026;-72
2022/03/10 04:23:07;;;;;;;10.77;7.13;;;3.70;94.20;;;;;;5020547;28;20428;-71
2022/03/10 04:25:32;;;;;;;11.35;7.57;;;3.60;94.20;;;;;;5021902;28;20557;-71
2022/03/10 04:27:59;;;;;;;12.82;6.55;;;3.60;94.40;;;;;;5021154;28;20033;-72
2022/03/10 04:30:25;;;;;;;12.75;6.78;;;3.60;94.70;;;;;;5021126;28;20071;-72
2022/03/10 04:32:50;;;;;;;11.02;6.53;;;3.60;94.60;;;;;;5020981;28;20030;-71
2022/03/10 04:35:18;;;;;;;16.30;7.68;;;3.60;94.70;;;;;;5021089;28;20064;-71
2022/03/10 04:37:46;;;;;;;12.73;8.65;;;3.70;94.40;;;;;;5021590;28;20079;-72
2022/03/10 04:40:12;;;;;;;13.32;7.18;;;3.60;94.40;;;;;;5019661;28;20497;-72
2022/03/10 04:42:38;;;;;;;12.50;7.22;;;3.60;94.50;;;;;;5021019;28;20116;-71
2022/03/10 04:45:06;;;;;;;15.70;8.25;;;3.50;94.80;;;;;;5021102;28;20038;-72
2022/03/10 04:47:32;;;;;;;13.43;8.05;;;3.50;95.10;;;;;;5021527;28;20052;-71
2022/03/10 04:49:58;;;;;;;15.13;8.63;;;3.40;95.30;;;;;;5020396;28;20145;-72
2022/03/10 04:52:27;;;;;;;17.90;7.93;;;3.40;95.20;;;;;;5019895;28;20037;-72
2022/03/10 04:54:53;;;;;;;15.00;7.78;;;3.40;95.40;;;;;;5021019;28;20164;-71
2022/03/10 04:57:19;;;;;;;14.90;6.97;;;3.40;95.30;;;;;;5020369;28;20160;-71
2022/03/10 04:59:44;;;;;;;17.13;8.77;;;3.40;95.40;;;;;;5021497;28;20397;-72
2022/03/10 05:02:10;;;;;;;13.70;7.13;;;3.30;95.70;;;;;;5020019;28;20025;-71
2022/03/10 05:04:35;;;;;;;16.80;9.00;;;3.30;95.60;;;;;;5020466;28;20042;-71
2022/03/10 05:07:01;;;;;;;10.18;8.48;;;3.30;95.80;;;;;;5020891;28;20413;-72
2022/03/10 05:09:26;;;;;;;16.65;8.82;;;3.30;95.70;;;;;;5020934;28;20037;-72
2022/03/10 05:11:52;;;;;;;19.20;10.07;;;3.20;95.90;;;;;;5019863;28;20332;-72
2022/03/10 05:14:17;;;;;;;15.18;9.07;;;3.20;95.90;;;;;;5020007;28;20032;-72
2022/03/10 05:16:43;;;;;;;24.13;11.25;;;3.20;95.90;;;;;;5020805;28;20029;-72
2022/03/10 05:19:08;;;;;;;15.80;8.05;;;3.20;96.00;;;;;;5018846;28;20033;-72
2022/03/10 05:21:34;;;;;;;14.40;8.57;;;3.20;96.10;;;;;;5019504;28;20030;-71
2022/03/10 05:24:00;;;;;;;;;;;3.20;96.20;;;;;;5020845;28;20041;-72
2022/03/10 05:26:25;;;;;;;38.67;17.60;;;3.20;96.20;;;;;;5021602;28;19913;-72
2022/03/10 05:28:51;;;;;;;40.90;19.52;;;3.20;96.30;;;;;;5018922;28;20048;-72
2022/03/10 05:31:16;;;;;;;21.08;12.02;;;3.20;96.30;;;;;;5019873;28;20030;-71
2022/03/10 05:33:42;;;;;;;21.00;11.27;;;3.20;96.20;;;;;;5019750;28;20029;-72
2022/03/10 05:36:07;;;;;;;16.38;11.07;;;3.20;96.20;;;;;;5019002;28;20052;-72
2022/03/10 05:38:33;;;;;;;17.33;9.75;;;3.20;96.30;;;;;;5020742;28;20384;-72
2022/03/10 05:41:00;;;;;;;18.42;8.80;;;3.20;96.30;;;;;;5020032;28;20036;-72
2022/03/10 05:43:25;;;;;;;14.07;8.63;;;3.20;96.20;;;;;;5019631;28;20091;-72
2022/03/10 05:45:51;;;;;;;15.52;8.93;;;3.30;96.30;;;;;;5020062;28;20480;-72
2022/03/10 05:48:17;;;;;;;13.20;7.38;;;3.30;96.40;;;;;;5020308;28;20033;-71
2022/03/10 05:50:42;;;;;;;;;;;3.30;96.10;;;;;;5019382;28;20030;-71
2022/03/10 05:53:08;;;;;;;16.42;7.78;;;3.40;96.30;;;;;;5019374;28;19913;-71
2022/03/10 05:55:35;;;;;;;24.00;8.20;;;3.40;96.10;;;;;;5020325;28;20032;-71
2022/03/10 05:58:00;;;;;;;17.30;7.45;;;3.40;96.20;;;;;;5018972;28;20026;-70
2022/03/10 06:00:26;;;;;;;15.95;7.85;;;3.40;96.10;;;;;;5019947;28;20056;-70
2022/03/10 06:02:51;;;;;;;16.40;8.55;;;3.40;96.10;;;;;;5019828;28;20478;-71
2022/03/10 06:05:17;;;;;;;12.02;8.10;;;3.50;96.20;;;;;;5020111;28;20029;-71
2022/03/10 06:07:43;;;;;;;15.35;8.40;;;3.50;96.20;;;;;;5019397;28;20055;-72
2022/03/10 06:10:09;;;;;;;14.48;8.32;;;3.60;96.00;;;;;;5016512;28;20057;-74
2022/03/10 06:12:35;;;;;;;17.52;9.30;;;3.60;95.90;;;;;;5018269;28;20406;-77
2022/03/10 06:15:03;;;;;;;12.07;7.32;;;3.60;95.90;;;;;;5019599;28;20017;-71
2022/03/10 06:17:29;;;;;;;11.45;6.72;;;3.70;95.80;;;;;;5016547;28;20128;-69
2022/03/10 06:19:55;;;;;;;15.60;9.23;;;3.70;95.70;;;;;;5019616;28;20124;-69
2022/03/10 06:22:24;;;;;;;12.40;7.60;;;3.70;95.60;;;;;;5018247;28;20030;-68
2022/03/10 06:24:50;;;;;;;11.70;7.13;;;3.70;95.60;;;;;;5019331;28;20049;-68
2022/03/10 06:27:17;;;;;;;10.63;7.28;;;3.70;95.50;;;;;;5018986;28;20050;-68
2022/03/10 06:29:43;;;;;;;12.45;6.35;;;3.80;95.70;;;;;;5019188;28;20060;-69
2022/03/10 06:32:08;;;;;;;14.35;6.97;;;3.80;95.70;;;;;;5018753;28;20498;-68
2022/03/10 06:34:37;;;;;;;16.45;8.35;;;3.90;95.60;;;;;;5017343;28;20044;-68
2022/03/10 06:37:06;;;;;;;12.70;7.35;;;3.90;95.60;;;;;;5019334;28;20394;-68
2022/03/10 06:39:32;;;;;;;11.43;6.78;;;4.00;95.40;;;;;;5018981;28;20387;-68
2022/03/10 06:41:58;;;;;;;10.25;6.78;;;4.10;95.50;;;;;;5019206;28;20448;-68
2022/03/10 06:44:24;;;;;;;16.38;6.60;;;4.10;95.40;;;;;;5019296;28;20022;-68
2022/03/10 06:46:50;;;;;;;12.35;6.22;;;4.10;95.30;;;;;;5019205;28;20108;-69
2022/03/10 06:49:15;;;;;;;14.05;7.75;;;4.20;95.30;;;;;;5019874;28;20203;-68
2022/03/10 06:51:41;;;;;;;13.07;7.50;;;4.30;95.10;;;;;;5019738;28;20105;-68
2022/03/10 06:54:06;;;;;;;9.63;6.65;;;4.30;95.20;;;;;;5050813;22;20132;-74
2022/03/10 06:56:32;;;;;;;9.48;6.28;;;4.50;94.90;;;;;;5044900;28;20374;-69
2022/03/10 06:58:58;;;;;;;11.25;7.35;;;4.50;95.00;;;;;;5047442;28;20041;-69
2022/03/10 07:01:23;;;;;;;13.45;7.18;;;4.60;94.60;;;;;;5046586;28;20438;-70
2022/03/10 07:04:54;;;;;;;12.25;6.65;;;4.80;94.30;;;;;;5080268;27;20375;-52
2022/03/10 07:07:19;;;;;;;15.50;7.32;;;4.80;94.70;;;;;;5083036;28;20029;-52
2022/03/10 07:09:45;;;;;;;14.63;6.90;;;4.90;94.40;;;;;;5083632;28;20051;-56
2022/03/10 07:12:10;;;;;;;10.95;6.13;;;5.00;94.30;;;;;;5082763;28;20046;-54
2022/03/10 07:14:36;;;;;;;8.82;6.72;;;5.10;93.90;;;;;;5083043;28;20028;-56
2022/03/10 07:17:02;;;;;;;12.48;7.28;;;5.20;93.50;;;;;;5083029;28;20077;-54
2022/03/10 07:19:27;;;;;;;13.25;7.15;;;5.20;93.80;;;;;;5082586;28;20028;-54
2022/03/10 07:21:53;;;;;;;19.23;7.75;;;5.20;93.90;;;;;;5081390;28;20103;-53
2022/03/10 07:24:19;;;;;;;13.48;7.05;;;5.20;93.90;;;;;;5082300;28;20040;-55
2022/03/10 07:26:44;;;;;;;11.77;7.95;;;5.30;93.80;;;;;;5081455;28;20500;-55
2022/03/10 07:29:10;;;;;;;18.52;7.88;;;5.30;93.80;;;;;;5081508;28;20085;-53
2022/03/10 07:31:36;;;;;;;;;;;5.30;94.20;;;;;;5082915;28;20048;-52
2022/03/10 07:34:01;;;;;;;13.73;6.60;;;5.30;94.20;;;;;;5082269;28;19974;-56
2022/03/10 07:36:27;;;;;;;17.70;9.07;;;5.30;94.20;;;;;;5082419;28;20054;-55
2022/03/10 07:38:52;;;;;;;11.93;8.20;;;5.30;94.20;;;;;;5081844;28;20097;-56
2022/03/10 07:41:18;;;;;;;14.73;7.07;;;5.30;94.20;;;;;;5082258;28;20025;-56
2022/03/10 07:43:44;;;;;;;14.95;8.93;;;5.40;94.30;;;;;;5081647;28;20310;-56
2022/03/10 07:46:09;;;;;;;15.10;8.05;;;5.40;94.10;;;;;;5082210;28;20111;-56
2022/03/10 07:48:35;;;;;;;14.13;7.93;;;5.50;94.30;;;;;;5078945;28;20032;-55
2022/03/10 07:51:01;;;;;;;14.98;8.60;;;5.50;94.60;;;;;;5081108;28;20131;-55
2022/03/10 07:53:27;;;;;;;27.10;9.07;;;5.60;94.60;;;;;;5081825;28;20039;-56
2022/03/10 07:55:55;;;;;;;18.65;8.25;;;5.60;94.40;;;;;;5081296;28;20302;-56
2022/03/10 07:58:23;;;;;;;16.92;7.60;;;5.70;94.20;;;;;;5082037;28;20086;-53
2022/03/10 08:00:50;;;;;;;15.85;8.88;;;5.70;94.50;;;;;;5081307;28;20036;-54
2022/03/10 08:03:15;;;;;;;15.32;8.73;;;5.80;94.30;;;;;;5080753;28;20059;-54
2022/03/10 08:05:41;;;;;;;11.27;6.85;;;5.90;94.20;;;;;;5081477;28;20474;-53
2022/03/10 08:08:06;;;;;;;16.60;8.23;;;6.00;93.90;;;;;;5077460;28;20049;-53
2022/03/10 08:10:32;;;;;;;15.25;7.68;;;6.10;93.70;;;;;;5081334;28;20024;-54
2022/03/10 08:12:57;;;;;;;12.98;7.10;;;6.30;93.40;;;;;;5081239;28;20032;-56
2022/03/10 08:15:23;;;;;;;15.02;7.22;;;6.30;93.20;;;;;;5072979;28;20036;-55
2022/03/10 08:17:48;;;;;;;14.63;8.27;;;6.40;93.30;;;;;;5067465;28;20374;-55
2022/03/10 08:20:14;;;;;;;12.55;7.25;;;6.60;93.40;;;;;;5068259;28;20484;-56
2022/03/10 08:22:39;;;;;;;17.85;8.30;;;6.70;92.70;;;;;;5067719;28;20021;-56
2022/03/10 08:25:05;;;;;;;18.25;7.68;;;6.80;92.30;;;;;;5064329;28;20021;-55
2022/03/10 08:27:31;;;;;;;;;;;6.90;91.80;;;;;;5068221;28;20029;-55
2022/03/10 08:29:57;;;;;;;14.18;8.60;;;7.00;92.00;;;;;;5065856;28;20288;-53
2022/03/10 08:32:25;;;;;;;13.75;8.15;;;7.10;91.50;;;;;;5065595;28;20028;-55
2022/03/10 08:34:51;;;;;;;14.48;7.65;;;7.20;91.60;;;;;;5066217;28;20393;-56
2022/03/10 08:37:18;;;;;;;15.63;8.30;;;7.30;91.30;;;;;;5067647;28;20033;-56
2022/03/10 08:39:44;;;;;;;37.00;19.33;;;7.30;90.50;;;;;;5065199;28;20546;-56
2022/03/10 08:42:09;;;;;;;21.90;11.50;;;7.50;91.00;;;;;;5067786;28;20033;-54
2022/03/10 08:44:35;;;;;;;19.75;11.70;;;7.60;90.00;;;;;;5067651;28;20481;-56
2022/03/10 08:47:00;;;;;;;16.35;9.40;;;7.70;89.10;;;;;;5067760;28;20078;-52
2022/03/10 08:49:26;;;;;;;18.05;7.93;;;7.80;87.90;;;;;;5067712;28;20032;-56
2022/03/10 08:51:51;;;;;;;15.32;8.65;;;7.90;88.30;;;;;;5066673;28;20029;-55
2022/03/10 08:54:17;;;;;;;19.40;8.82;;;8.00;87.50;;;;;;5068328;28;20451;-56
2022/03/10 08:56:43;;;;;;;10.40;7.88;;;8.00;87.30;;;;;;5065594;28;20101;-56
2022/03/10 08:59:08;;;;;;;14.60;8.70;;;8.20;85.20;;;;;;5066071;28;20029;-53
2022/03/10 09:01:34;;;;;;;16.30;9.15;;;8.30;84.70;;;;;;5067409;28;20213;-56
2022/03/10 09:03:59;;;;;;;16.02;8.75;;;8.40;83.90;;;;;;5066251;28;20495;-56
2022/03/10 09:06:25;;;;;;;11.93;7.03;;;8.50;85.90;;;;;;5067161;28;20016;-56
2022/03/10 09:08:50;;;;;;;15.32;7.68;;;8.50;82.80;;;;;;5067455;28;20028;-55
2022/03/10 09:11:17;;;;;;;13.70;7.63;;;8.60;81.70;;;;;;5067037;28;20137;-55
2022/03/10 09:13:48;;;;;;;15.95;7.40;;;8.70;79.90;;;;;;5066241;28;20068;-56
2022/03/10 09:16:21;;;;;;;11.93;7.75;;;8.80;79.30;;;;;;5064277;28;20420;-56
2022/03/10 09:18:47;;;;;;;12.18;7.32;;;8.80;80.00;;;;;;5065765;28;20028;-56
2022/03/10 09:21:13;;;;;;;14.60;8.10;;;8.80;81.70;;;;;;5066404;28;20039;-56
2022/03/10 09:23:39;;;;;;;17.45;7.03;;;8.90;79.40;;;;;;5066744;28;20097;-55
2022/03/10 09:26:05;;;;;;;16.77;7.43;;;9.00;76.90;;;;;;5065721;28;20044;-56
2022/03/10 09:28:30;;;;;;;;;;;9.10;76.60;;;;;;5066957;28;20370;-56
2022/03/10 09:30:55;;;;;;;15.52;6.57;;;9.20;76.90;;;;;;5066782;28;19912;-56
2022/03/10 09:33:21;;;;;;;15.48;8.18;;;9.20;76.00;;;;;;5062900;28;20581;-56
2022/03/10 09:35:47;;;;;;;17.67;7.93;;;9.30;73.90;;;;;;5066031;28;20082;-55
2022/03/10 09:38:12;;;;;;;13.00;8.10;;;9.40;74.60;;;;;;5066768;28;20131;-55
2022/03/10 09:40:38;;;;;;;11.68;6.63;;;9.40;73.20;;;;;;5066144;28;20033;-55
2022/03/10 09:43:03;;;;;;;;;;;9.50;75.10;;;;;;5066373;28;20105;-56
2022/03/10 09:45:30;;;;;;;12.93;6.45;;;9.60;72.40;;;;;;5066859;28;19979;-55
2022/03/10 09:47:56;;;;;;;11.65;5.90;;;9.70;69.20;;;;;;5065663;28;20028;-55
2022/03/10 09:50:21;;;;;;;9.88;5.97;;;9.60;68.10;;;;;;5063346;28;20032;-53
2022/03/10 09:52:48;;;;;;;14.52;6.22;;;9.70;68.80;;;;;;5065970;28;20032;-54
2022/03/10 09:55:14;;;;;;;;;;;9.70;67.30;;;;;;5066659;28;20036;-56
2022/03/10 09:57:42;;;;;;;18.55;7.18;;;9.80;67.40;;;;;;5065818;28;19912;-56
2022/03/10 10:00:10;;;;;;;8.77;6.18;;;9.80;68.60;;;;;;5063154;28;20040;-56
2022/03/10 10:02:36;;;;;;;11.73;6.22;;;9.90;66.40;;;;;;5064774;28;20065;-55
2022/03/10 10:05:02;;;;;;;10.13;6.13;;;10.10;65.80;;;;;;5066554;28;20386;-55
2022/03/10 10:07:29;;;;;;;;;;;10.20;65.80;;;;;;5066789;28;20024;-55
2022/03/10 10:09:57;;;;;;;9.93;6.20;;;10.20;63.20;;;;;;5066341;28;20377;-56
2022/03/10 10:12:32;;;;;;;20.70;6.72;;;10.10;62.70;;;;;;5066319;28;20036;-56
2022/03/10 10:15:00;;;;;;;11.07;6.43;;;10.10;61.80;;;;;;5067141;28;20025;-55
2022/03/10 10:17:31;;;;;;;11.00;6.22;;;10.10;62.20;;;;;;5065637;28;20037;-53
2022/03/10 10:19:58;;;;;;;10.70;6.15;;;10.20;61.20;;;;;;5065666;28;20037;-52
2022/03/10 10:22:26;;;;;;;12.65;5.28;;;10.20;63.10;;;;;;5065109;28;20032;-54
2022/03/10 10:24:57;;;;;;;10.98;6.13;;;10.30;62.60;;;;;;5065679;28;20036;-54
2022/03/10 10:27:33;;;;;;;8.00;5.55;;;10.40;60.40;;;;;;5065017;28;20405;-52
2022/03/10 10:30:02;;;;;;;11.18;7.13;;;10.40;61.60;;;;;;5065557;28;20044;-56
2022/03/10 10:32:43;;;;;;;13.55;5.88;;;10.40;59.70;;;;;;5066262;28;20556;-53
2022/03/10 10:35:20;;;;;;;10.38;6.65;;;10.30;63.10;;;;;;5065521;28;20115;-56
2022/03/10 10:37:48;;;;;;;13.35;6.68;;;10.50;62.20;;;;;;5065188;28;20484;-55
2022/03/10 10:40:19;;;;;;;9.20;6.85;;;10.70;60.50;;;;;;5065778;28;20037;-55
2022/03/10 10:42:44;;;;;;;14.73;7.47;;;10.70;59.60;;;;;;5064747;28;20067;-55
2022/03/10 10:45:28;;;;;;;;;;;10.80;59.10;;;;;;5065497;28;20060;-53
2022/03/10 10:48:05;;;;;;;21.02;11.70;;;10.70;59.80;;;;;;5065123;28;19916;-51
2022/03/10 10:50:37;;;;;;;12.70;6.55;;;10.70;59.40;;;;;;5065731;28;20017;-51
2022/03/10 10:53:04;;;;;;;12.63;7.88;;;10.80;59.90;;;;;;5065418;28;20142;-53
2022/03/10 10:55:45;;;;;;;12.15;7.43;;;10.80;62.30;;;;;;5058265;28;20036;-55
2022/03/10 10:58:14;;;;;;;11.75;6.97;;;10.80;58.00;;;;;;5064393;28;20033;-51
2022/03/10 11:00:45;;;;;;;13.45;7.22;;;10.80;59.60;;;;;;5060858;28;20536;-54
2022/03/10 11:03:35;;;;;;;12.20;7.20;;;10.90;61.00;;;;;;5062263;28;20033;-54
2022/03/10 11:06:01;;;;;;;13.50;7.78;;;10.90;60.60;;;;;;5064414;28;20036;-56
2022/03/10 11:08:28;;;;;;;;;;;11.10;59.20;;;;;;5064190;28;20389;-55
2022/03/10 11:10:54;;;;;;;16.13;7.90;;;11.20;56.80;;;;;;5061914;28;20526;-55
2022/03/10 11:13:20;;;;;;;;;;;11.20;57.30;;;;;;5063874;28;20040;-54
2022/03/10 11:15:46;;;;;;;10.25;6.88;;;11.20;55.40;;;;;;5062150;28;19910;-56
2022/03/10 11:18:12;;;;;;;;;;;11.20;57.10;;;;;;5062094;28;20029;-55
2022/03/10 11:20:41;;;;;;;10.88;6.63;;;11.30;53.70;;;;;;5062052;28;20368;-56
2022/03/10 11:23:50;;;;;;;9.65;6.63;;;11.20;53.30;;;;;;5062741;28;20334;-56
2022/03/10 11:26:29;;;;;;;13.15;6.35;;;11.00;55.20;;;;;;5065062;28;20086;-55
2022/03/10 11:28:57;;;;;;;13.32;8.05;;;11.10;56.00;;;;;;5061981;28;20024;-56
2022/03/10 11:31:23;;;;;;;12.68;8.10;;;11.20;53.80;;;;;;5062266;28;20031;-56
2022/03/10 11:33:49;;;;;;;15.07;9.18;;;11.30;53.90;;;;;;5063095;28;20477;-55
2022/03/10 11:36:22;;;;;;;;;;;11.30;52.60;;;;;;5061699;28;20563;-53
2022/03/10 11:38:57;;;;;;;11.35;7.25;;;11.30;53.80;;;;;;5059385;28;19913;-54
2022/03/10 11:41:27;;;;;;;8.77;6.78;;;11.40;52.70;;;;;;5064171;28;20465;-55
2022/03/10 11:44:01;;;;;;;14.98;9.30;;;11.50;52.20;;;;;;5061889;28;20036;-58
2022/03/10 11:46:29;;;;;;;12.23;6.63;;;11.60;52.80;;;;;;5060629;28;20028;-56
2022/03/10 11:49:01;;;;;;;14.20;8.70;;;11.70;52.50;;;;;;5057746;28;20035;-56
2022/03/10 11:51:59;;;;;;;10.73;7.43;;;11.80;52.80;;;;;;5064939;28;20029;-56
2022/03/10 11:54:27;;;;;;;15.57;8.02;;;11.80;51.50;;;;;;5067317;28;20029;-56
2022/03/10 11:56:53;;;;;;;14.70;8.15;;;11.80;51.60;;;;;;5064672;28;20496;-56
2022/03/10 11:59:44;;;;;;;11.82;6.78;;;11.80;52.20;;;;;;5065761;28;20032;-56
2022/03/10 12:02:37;;;;;;;8.98;6.18;;;11.80;50.80;;;;;;5065059;28;20121;-55
2022/03/10 12:05:03;;;;;;;11.43;7.70;;;11.70;49.40;;;;;;5067004;28;20045;-55
2022/03/10 12:07:30;;;;;;;11.23;6.90;;;11.70;51.00;;;;;;5067215;28;20021;-54
2022/03/10 12:10:06;;;;;;;17.65;8.57;;;11.70;50.20;;;;;;5067123;28;20032;-54
2022/03/10 12:12:42;;;;;;;18.15;8.73;;;11.80;50.80;;;;;;5067102;28;20029;-57
2022/03/10 12:15:23;;;;;;;11.70;7.57;;;11.80;49.10;;;;;;5065543;28;20024;-56
2022/03/10 12:17:52;;;;;;;11.27;6.43;;;11.90;48.70;;;;;;5068512;28;20044;-55
2022/03/10 12:20:21;;;;;;;12.43;6.47;;;11.90;48.50;;;;;;5067985;28;20024;-57
2022/03/10 12:23:02;;;;;;;11.23;6.43;;;11.90;47.70;;;;;;5063298;28;20021;-57
2022/03/10 12:25:28;;;;;;;6.93;5.25;;;12.10;49.40;;;;;;5067958;28;20111;-54
2022/03/10 12:27:55;;;;;;;;;;;12.20;46.80;;;;;;5064176;28;20167;-57
2022/03/10 12:30:23;;;;;;;11.10;5.53;;;12.20;47.20;;;;;;5066926;28;20317;-57
2022/03/10 12:32:50;;;;;;;11.48;6.13;;;12.20;46.80;;;;;;5066228;28;20397;-57
2022/03/10 12:35:20;;;;;;;9.80;5.53;;;12.30;46.10;;;;;;5063650;28;20017;-51
2022/03/10 12:37:49;;;;;;;7.45;4.75;;;12.30;47.40;;;;;;5067144;28;20137;-57
2022/03/10 12:40:19;;;;;;;9.98;5.25;;;12.20;45.70;;;;;;5063878;28;20017;-54
2022/03/10 12:42:49;;;;;;;12.48;7.03;;;12.20;46.50;;;;;;5066231;28;20033;-54
2022/03/10 12:45:21;;;;;;;13.93;6.47;;;12.20;47.80;;;;;;5068052;28;20498;-56
2022/03/10 12:48:08;;;;;;;10.80;6.15;;;12.20;46.60;;;;;;5067491;28;20513;-56
2022/03/10 12:50:35;;;;;;;13.73;6.95;;;12.30;46.70;;;;;;5064956;28;20032;-56
2022/03/10 12:55:44;;;;;;;11.05;5.05;;;12.30;46.50;;;;;;5069341;28;20062;-54
2022/03/10 12:58:10;;;;;;;11.05;5.97;;;12.40;45.70;;;;;;5070854;28;20103;-54
2022/03/10 13:00:40;;;;;;;8.27;5.28;;;12.30;45.50;;;;;;5072374;28;20023;-55